sensor_id;sensor_type;location;lat;lon;timestamp;P1;durP1;ratioP1;P2;durP2;ratioP2
61960;SDS011;47923;42.506;24.192;2022-12-29T00:01:48;15.43;;;9.10;;
61960;SDS011;47923;42.506;24.192;2022-12-29T00:04:13;16.50;;;9.43;;
61960;SDS011;47923;42.506;24.192;2022-12-29T00:06:40;17.10;;;10.50;;
61960;SDS011;47923;42.506;24.192;2022-12-29T00:09:06;18.15;;;8.98;;
61960;SDS011;47923;42.506;24.192;2022-12-29T00:11:31;15.90;;;9.85;;
61960;SDS011;47923;42.506;24.192;2022-12-29T00:13:57;19.88;;;10.35;;
61960;SDS011;47923;42.506;24.192;2022-12-29T00:16:42;18.00;;;10.38;;
61960;SDS011;47923;42.506;24.192;2022-12-29T00:19:09;18.75;;;10.75;;
61960;SDS011;47923;42.506;24.192;2022-12-29T00:21:56;20.73;;;11.38;;
61960;SDS011;47923;42.506;24.192;2022-12-29T00:24:41;26.83;;;14.63;;
61960;SDS011;47923;42.506;24.192;2022-12-29T00:27:18;27.88;;;14.68;;
61960;SDS011;47923;42.506;24.192;2022-12-29T00:30:07;26.88;;;13.27;;
61960;SDS011;47923;42.506;24.192;2022-12-29T00:32:55;25.23;;;14.25;;
61960;SDS011;47923;42.506;24.192;2022-12-29T00:38:09;20.92;;;11.10;;
61960;SDS011;47923;42.506;24.192;2022-12-29T00:40:56;19.08;;;10.93;;
61960;SDS011;47923;42.506;24.192;2022-12-29T00:43:39;15.65;;;10.02;;
61960;SDS011;47923;42.506;24.192;2022-12-29T00:46:23;13.82;;;8.32;;
61960;SDS011;47923;42.506;24.192;2022-12-29T00:48:49;12.73;;;7.82;;
61960;SDS011;47923;42.506;24.192;2022-12-29T00:51:33;20.58;;;10.18;;
61960;SDS011;47923;42.506;24.192;2022-12-29T00:53:58;13.05;;;8.15;;
61960;SDS011;47923;42.506;24.192;2022-12-29T00:56:23;13.93;;;8.88;;
61960;SDS011;47923;42.506;24.192;2022-12-29T00:58:49;15.00;;;8.05;;
61960;SDS011;47923;42.506;24.192;2022-12-29T01:01:14;14.75;;;8.07;;
61960;SDS011;47923;42.506;24.192;2022-12-29T01:03:40;12.27;;;7.45;;
61960;SDS011;47923;42.506;24.192;2022-12-29T01:06:06;10.85;;;6.30;;
61960;SDS011;47923;42.506;24.192;2022-12-29T01:08:34;10.02;;;5.78;;
61960;SDS011;47923;42.506;24.192;2022-12-29T01:11:00;11.25;;;7.40;;
61960;SDS011;47923;42.506;24.192;2022-12-29T01:13:27;20.33;;;12.57;;
61960;SDS011;47923;42.506;24.192;2022-12-29T01:15:53;19.75;;;12.40;;
61960;SDS011;47923;42.506;24.192;2022-12-29T01:18:20;25.83;;;17.33;;
61960;SDS011;47923;42.506;24.192;2022-12-29T01:20:46;21.70;;;14.27;;
61960;SDS011;47923;42.506;24.192;2022-12-29T01:23:11;22.00;;;14.82;;
61960;SDS011;47923;42.506;24.192;2022-12-29T01:25:37;26.60;;;16.85;;
61960;SDS011;47923;42.506;24.192;2022-12-29T01:28:02;21.33;;;13.98;;
61960;SDS011;47923;42.506;24.192;2022-12-29T01:30:28;23.08;;;15.77;;
61960;SDS011;47923;42.506;24.192;2022-12-29T01:32:53;21.48;;;13.23;;
61960;SDS011;47923;42.506;24.192;2022-12-29T01:35:19;22.15;;;14.10;;
61960;SDS011;47923;42.506;24.192;2022-12-29T01:37:44;19.27;;;12.32;;
61960;SDS011;47923;42.506;24.192;2022-12-29T01:40:10;18.05;;;10.02;;
61960;SDS011;47923;42.506;24.192;2022-12-29T01:42:36;17.15;;;9.75;;
61960;SDS011;47923;42.506;24.192;2022-12-29T01:45:02;14.65;;;7.78;;
61960;SDS011;47923;42.506;24.192;2022-12-29T01:47:38;15.27;;;8.90;;
61960;SDS011;47923;42.506;24.192;2022-12-29T01:50:13;19.05;;;11.15;;
61960;SDS011;47923;42.506;24.192;2022-12-29T01:52:56;17.23;;;10.93;;
61960;SDS011;47923;42.506;24.192;2022-12-29T01:55:33;21.50;;;13.85;;
61960;SDS011;47923;42.506;24.192;2022-12-29T01:58:03;24.20;;;16.42;;
61960;SDS011;47923;42.506;24.192;2022-12-29T02:00:31;21.92;;;12.77;;
61960;SDS011;47923;42.506;24.192;2022-12-29T02:02:57;18.95;;;11.45;;
61960;SDS011;47923;42.506;24.192;2022-12-29T02:05:44;19.85;;;11.07;;
61960;SDS011;47923;42.506;24.192;2022-12-29T02:08:16;17.42;;;10.48;;
61960;SDS011;47923;42.506;24.192;2022-12-29T02:10:42;15.98;;;9.75;;
61960;SDS011;47923;42.506;24.192;2022-12-29T02:13:09;19.60;;;12.00;;
61960;SDS011;47923;42.506;24.192;2022-12-29T02:39:41;14.98;;;9.40;;
61960;SDS011;47923;42.506;24.192;2022-12-29T02:42:21;17.10;;;10.00;;
61960;SDS011;47923;42.506;24.192;2022-12-29T02:50:54;16.75;;;11.75;;
61960;SDS011;47923;42.506;24.192;2022-12-29T02:53:26;19.13;;;12.67;;
61960;SDS011;47923;42.506;24.192;2022-12-29T02:56:12;18.10;;;11.60;;
61960;SDS011;47923;42.506;24.192;2022-12-29T02:58:37;21.33;;;11.73;;
61960;SDS011;47923;42.506;24.192;2022-12-29T03:12:04;28.80;;;20.45;;
61960;SDS011;47923;42.506;24.192;2022-12-29T03:17:46;18.27;;;11.75;;
61960;SDS011;47923;42.506;24.192;2022-12-29T03:21:02;15.45;;;9.88;;
61960;SDS011;47923;42.506;24.192;2022-12-29T03:23:17;18.80;;;9.57;;
61960;SDS011;47923;42.506;24.192;2022-12-29T03:25:46;15.70;;;9.10;;
61960;SDS011;47923;42.506;24.192;2022-12-29T03:28:21;14.38;;;8.25;;
61960;SDS011;47923;42.506;24.192;2022-12-29T03:30:50;16.33;;;9.32;;
61960;SDS011;47923;42.506;24.192;2022-12-29T03:33:17;18.38;;;9.88;;
61960;SDS011;47923;42.506;24.192;2022-12-29T03:35:47;14.90;;;9.85;;
61960;SDS011;47923;42.506;24.192;2022-12-29T03:38:19;24.40;;;13.75;;
61960;SDS011;47923;42.506;24.192;2022-12-29T03:40:51;20.10;;;12.27;;
61960;SDS011;47923;42.506;24.192;2022-12-29T03:43:20;25.23;;;16.92;;
61960;SDS011;47923;42.506;24.192;2022-12-29T03:45:46;25.83;;;15.75;;
61960;SDS011;47923;42.506;24.192;2022-12-29T03:48:12;25.80;;;16.35;;
61960;SDS011;47923;42.506;24.192;2022-12-29T03:50:37;23.15;;;15.82;;
61960;SDS011;47923;42.506;24.192;2022-12-29T03:53:03;18.95;;;13.38;;
61960;SDS011;47923;42.506;24.192;2022-12-29T03:55:28;24.17;;;16.75;;
61960;SDS011;47923;42.506;24.192;2022-12-29T03:57:54;21.30;;;14.63;;
61960;SDS011;47923;42.506;24.192;2022-12-29T04:00:19;23.60;;;15.15;;
61960;SDS011;47923;42.506;24.192;2022-12-29T04:02:45;20.52;;;13.05;;
61960;SDS011;47923;42.506;24.192;2022-12-29T04:05:10;20.25;;;12.50;;
61960;SDS011;47923;42.506;24.192;2022-12-29T04:07:35;19.25;;;11.75;;
61960;SDS011;47923;42.506;24.192;2022-12-29T04:10:01;22.65;;;13.20;;
61960;SDS011;47923;42.506;24.192;2022-12-29T04:12:27;24.48;;;13.63;;
61960;SDS011;47923;42.506;24.192;2022-12-29T04:14:52;25.88;;;14.88;;
61960;SDS011;47923;42.506;24.192;2022-12-29T04:17:17;27.52;;;15.07;;
61960;SDS011;47923;42.506;24.192;2022-12-29T04:19:44;23.38;;;15.45;;
61960;SDS011;47923;42.506;24.192;2022-12-29T04:22:09;39.83;;;25.00;;
61960;SDS011;47923;42.506;24.192;2022-12-29T04:24:36;33.65;;;21.40;;
61960;SDS011;47923;42.506;24.192;2022-12-29T04:27:02;31.33;;;20.25;;
61960;SDS011;47923;42.506;24.192;2022-12-29T04:29:27;29.10;;;19.48;;
61960;SDS011;47923;42.506;24.192;2022-12-29T04:31:53;35.75;;;20.90;;
61960;SDS011;47923;42.506;24.192;2022-12-29T04:34:18;33.25;;;23.10;;
61960;SDS011;47923;42.506;24.192;2022-12-29T04:36:44;27.60;;;18.42;;
61960;SDS011;47923;42.506;24.192;2022-12-29T04:39:09;25.10;;;17.10;;
61960;SDS011;47923;42.506;24.192;2022-12-29T04:41:34;27.10;;;18.58;;
61960;SDS011;47923;42.506;24.192;2022-12-29T04:44:00;31.17;;;20.70;;
61960;SDS011;47923;42.506;24.192;2022-12-29T04:46:25;28.02;;;17.42;;
61960;SDS011;47923;42.506;24.192;2022-12-29T04:48:51;29.13;;;17.33;;
61960;SDS011;47923;42.506;24.192;2022-12-29T04:51:16;25.88;;;17.65;;
61960;SDS011;47923;42.506;24.192;2022-12-29T04:53:42;30.05;;;20.42;;
61960;SDS011;47923;42.506;24.192;2022-12-29T04:56:07;27.95;;;20.65;;
61960;SDS011;47923;42.506;24.192;2022-12-29T04:58:34;28.55;;;18.77;;
61960;SDS011;47923;42.506;24.192;2022-12-29T05:01:01;30.38;;;18.83;;
61960;SDS011;47923;42.506;24.192;2022-12-29T05:03:26;28.38;;;18.70;;
61960;SDS011;47923;42.506;24.192;2022-12-29T05:05:55;29.08;;;15.93;;
61960;SDS011;47923;42.506;24.192;2022-12-29T05:08:21;26.45;;;13.35;;
61960;SDS011;47923;42.506;24.192;2022-12-29T05:10:49;19.35;;;12.55;;
61960;SDS011;47923;42.506;24.192;2022-12-29T05:13:15;21.35;;;11.57;;
61960;SDS011;47923;42.506;24.192;2022-12-29T05:15:45;18.00;;;11.65;;
61960;SDS011;47923;42.506;24.192;2022-12-29T05:18:16;24.63;;;13.98;;
61960;SDS011;47923;42.506;24.192;2022-12-29T05:20:42;20.38;;;12.65;;
61960;SDS011;47923;42.506;24.192;2022-12-29T05:23:08;20.45;;;11.90;;
61960;SDS011;47923;42.506;24.192;2022-12-29T05:25:33;22.33;;;13.95;;
61960;SDS011;47923;42.506;24.192;2022-12-29T05:27:58;23.90;;;14.80;;
61960;SDS011;47923;42.506;24.192;2022-12-29T05:30:24;30.25;;;20.75;;
61960;SDS011;47923;42.506;24.192;2022-12-29T05:32:49;32.58;;;20.92;;
61960;SDS011;47923;42.506;24.192;2022-12-29T05:35:15;37.92;;;22.55;;
61960;SDS011;47923;42.506;24.192;2022-12-29T05:37:40;54.47;;;32.47;;
61960;SDS011;47923;42.506;24.192;2022-12-29T05:40:06;48.28;;;28.50;;
61960;SDS011;47923;42.506;24.192;2022-12-29T05:42:32;51.58;;;33.17;;
61960;SDS011;47923;42.506;24.192;2022-12-29T05:44:57;57.90;;;34.63;;
61960;SDS011;47923;42.506;24.192;2022-12-29T05:47:23;63.25;;;38.22;;
61960;SDS011;47923;42.506;24.192;2022-12-29T05:49:48;50.45;;;31.23;;
61960;SDS011;47923;42.506;24.192;2022-12-29T05:55:11;37.08;;;23.35;;
61960;SDS011;47923;42.506;24.192;2022-12-29T05:57:37;32.42;;;22.38;;
61960;SDS011;47923;42.506;24.192;2022-12-29T06:00:05;30.10;;;19.23;;
61960;SDS011;47923;42.506;24.192;2022-12-29T06:02:31;39.08;;;25.35;;
61960;SDS011;47923;42.506;24.192;2022-12-29T06:04:57;36.88;;;24.38;;
61960;SDS011;47923;42.506;24.192;2022-12-29T06:07:22;47.50;;;30.90;;
61960;SDS011;47923;42.506;24.192;2022-12-29T06:09:47;52.08;;;33.80;;
61960;SDS011;47923;42.506;24.192;2022-12-29T06:12:13;229.27;;;114.13;;
61960;SDS011;47923;42.506;24.192;2022-12-29T06:14:38;116.78;;;70.05;;
61960;SDS011;47923;42.506;24.192;2022-12-29T06:17:04;109.18;;;68.82;;
61960;SDS011;47923;42.506;24.192;2022-12-29T06:19:29;113.18;;;65.40;;
61960;SDS011;47923;42.506;24.192;2022-12-29T06:21:54;128.68;;;75.72;;
61960;SDS011;47923;42.506;24.192;2022-12-29T06:24:20;129.57;;;75.32;;
61960;SDS011;47923;42.506;24.192;2022-12-29T06:26:46;75.35;;;47.70;;
61960;SDS011;47923;42.506;24.192;2022-12-29T06:29:11;110.97;;;65.68;;
61960;SDS011;47923;42.506;24.192;2022-12-29T06:31:41;127.13;;;74.57;;
61960;SDS011;47923;42.506;24.192;2022-12-29T06:34:08;96.45;;;58.88;;
61960;SDS011;47923;42.506;24.192;2022-12-29T06:36:34;82.70;;;51.55;;
61960;SDS011;47923;42.506;24.192;2022-12-29T06:38:59;131.13;;;81.18;;
61960;SDS011;47923;42.506;24.192;2022-12-29T06:41:25;131.95;;;83.05;;
61960;SDS011;47923;42.506;24.192;2022-12-29T06:43:50;155.35;;;95.32;;
61960;SDS011;47923;42.506;24.192;2022-12-29T06:46:15;115.70;;;74.72;;
61960;SDS011;47923;42.506;24.192;2022-12-29T06:48:41;128.82;;;77.75;;
61960;SDS011;47923;42.506;24.192;2022-12-29T06:51:07;122.10;;;71.43;;
61960;SDS011;47923;42.506;24.192;2022-12-29T06:53:33;112.40;;;67.90;;
61960;SDS011;47923;42.506;24.192;2022-12-29T06:55:58;97.50;;;57.47;;
61960;SDS011;47923;42.506;24.192;2022-12-29T06:58:23;75.22;;;49.72;;
61960;SDS011;47923;42.506;24.192;2022-12-29T07:00:49;86.85;;;53.35;;
61960;SDS011;47923;42.506;24.192;2022-12-29T07:03:15;91.90;;;54.78;;
61960;SDS011;47923;42.506;24.192;2022-12-29T07:05:40;106.30;;;70.70;;
61960;SDS011;47923;42.506;24.192;2022-12-29T07:08:05;103.18;;;73.32;;
61960;SDS011;47923;42.506;24.192;2022-12-29T07:10:31;142.30;;;96.32;;
61960;SDS011;47923;42.506;24.192;2022-12-29T07:12:57;121.20;;;85.82;;
61960;SDS011;47923;42.506;24.192;2022-12-29T07:15:22;119.50;;;78.10;;
61960;SDS011;47923;42.506;24.192;2022-12-29T07:17:48;124.10;;;77.65;;
61960;SDS011;47923;42.506;24.192;2022-12-29T07:20:14;95.03;;;64.63;;
61960;SDS011;47923;42.506;24.192;2022-12-29T07:22:40;106.28;;;72.82;;
61960;SDS011;47923;42.506;24.192;2022-12-29T07:25:06;61.80;;;45.70;;
61960;SDS011;47923;42.506;24.192;2022-12-29T07:27:32;80.50;;;53.03;;
61960;SDS011;47923;42.506;24.192;2022-12-29T07:29:57;70.82;;;50.95;;
61960;SDS011;47923;42.506;24.192;2022-12-29T07:32:23;61.63;;;47.08;;
61960;SDS011;47923;42.506;24.192;2022-12-29T07:34:48;79.88;;;51.83;;
61960;SDS011;47923;42.506;24.192;2022-12-29T07:37:17;70.38;;;48.13;;
61960;SDS011;47923;42.506;24.192;2022-12-29T07:39:43;73.25;;;49.63;;
61960;SDS011;47923;42.506;24.192;2022-12-29T07:42:08;75.72;;;52.00;;
61960;SDS011;47923;42.506;24.192;2022-12-29T07:44:34;84.07;;;53.80;;
61960;SDS011;47923;42.506;24.192;2022-12-29T07:47:01;82.20;;;57.70;;
61960;SDS011;47923;42.506;24.192;2022-12-29T07:49:27;74.22;;;54.60;;
61960;SDS011;47923;42.506;24.192;2022-12-29T07:51:52;62.40;;;46.40;;
61960;SDS011;47923;42.506;24.192;2022-12-29T07:54:18;64.10;;;47.95;;
61960;SDS011;47923;42.506;24.192;2022-12-29T07:56:44;77.20;;;54.13;;
61960;SDS011;47923;42.506;24.192;2022-12-29T07:59:10;80.22;;;60.92;;
61960;SDS011;47923;42.506;24.192;2022-12-29T08:01:38;89.22;;;69.53;;
61960;SDS011;47923;42.506;24.192;2022-12-29T08:04:04;97.55;;;79.20;;
61960;SDS011;47923;42.506;24.192;2022-12-29T08:06:30;100.57;;;80.65;;
61960;SDS011;47923;42.506;24.192;2022-12-29T08:08:56;116.15;;;98.10;;
61960;SDS011;47923;42.506;24.192;2022-12-29T08:11:22;116.97;;;101.55;;
61960;SDS011;47923;42.506;24.192;2022-12-29T08:13:48;107.22;;;95.25;;
61960;SDS011;47923;42.506;24.192;2022-12-29T08:16:13;104.47;;;91.35;;
61960;SDS011;47923;42.506;24.192;2022-12-29T08:18:39;80.10;;;71.40;;
61960;SDS011;47923;42.506;24.192;2022-12-29T08:21:04;64.03;;;55.45;;
61960;SDS011;47923;42.506;24.192;2022-12-29T08:23:30;86.22;;;74.50;;
61960;SDS011;47923;42.506;24.192;2022-12-29T08:25:59;129.82;;;98.65;;
61960;SDS011;47923;42.506;24.192;2022-12-29T08:28:26;102.65;;;89.60;;
61960;SDS011;47923;42.506;24.192;2022-12-29T08:30:52;91.90;;;77.07;;
61960;SDS011;47923;42.506;24.192;2022-12-29T08:33:18;58.20;;;48.92;;
61960;SDS011;47923;42.506;24.192;2022-12-29T08:43:21;49.58;;;42.25;;
61960;SDS011;47923;42.506;24.192;2022-12-29T14:58:31;39.35;;;23.42;;
61960;SDS011;47923;42.506;24.192;2022-12-29T15:01:03;49.90;;;30.77;;
61960;SDS011;47923;42.506;24.192;2022-12-29T15:03:29;52.83;;;32.15;;
61960;SDS011;47923;42.506;24.192;2022-12-29T15:05:59;56.05;;;29.75;;
61960;SDS011;47923;42.506;24.192;2022-12-29T15:08:32;64.18;;;37.72;;
61960;SDS011;47923;42.506;24.192;2022-12-29T15:11:09;64.57;;;37.90;;
61960;SDS011;47923;42.506;24.192;2022-12-29T15:13:42;57.60;;;35.03;;
61960;SDS011;47923;42.506;24.192;2022-12-29T15:16:25;45.90;;;28.20;;
61960;SDS011;47923;42.506;24.192;2022-12-29T15:18:55;38.85;;;24.40;;
61960;SDS011;47923;42.506;24.192;2022-12-29T15:21:23;71.50;;;49.97;;
61960;SDS011;47923;42.506;24.192;2022-12-29T15:23:51;71.57;;;49.00;;
61960;SDS011;47923;42.506;24.192;2022-12-29T15:26:17;46.75;;;31.77;;
61960;SDS011;47923;42.506;24.192;2022-12-29T15:31:23;63.28;;;44.75;;
61960;SDS011;47923;42.506;24.192;2022-12-29T15:33:51;57.70;;;43.28;;
61960;SDS011;47923;42.506;24.192;2022-12-29T15:36:27;63.58;;;45.55;;
61960;SDS011;47923;42.506;24.192;2022-12-29T15:38:54;61.80;;;43.15;;
61960;SDS011;47923;42.506;24.192;2022-12-29T15:41:42;57.75;;;39.83;;
